Time;durP1;ratioP1;P1;durP2;ratioP2;P2;SDS_P1;SDS_P2;PMS_P1;PMS_P2;Temp;Humidity;BMP_temperature;BMP_pressure;BME280_temperature;BME280_humidity;BME280_pressure;Samples;Min_cycle;Max_cycle;Signal;HPM_P1;HPM_P2
2023/03/01 00:01:14;;;;;;;27.63;12.98;;;;;;;-3.12;100.00;102513.31;6209503;23;20021;-74
2023/03/01 00:03:41;;;;;;;40.80;14.15;;;;;;;-3.19;100.00;102516.94;6210968;23;20031;-73
2023/03/01 00:06:08;;;;;;;31.45;12.95;;;;;;;-3.31;100.00;102520.63;6211004;23;20339;-72
2023/03/01 00:08:35;;;;;;;25.17;11.82;;;;;;;-3.38;100.00;102514.63;6226230;23;20029;-70
2023/03/01 00:11:06;;;;;;;38.28;12.80;;;;;;;-3.41;100.00;102512.09;6239412;23;20035;-70
2023/03/01 00:19:04;;;;;;;26.20;11.95;;;;;;;-3.34;100.00;102499.72;6215765;22;20012;-72
2023/03/01 00:21:31;;;;;;;30.70;12.40;;;;;;;-3.50;100.00;102491.25;6241331;23;20043;-71
2023/03/01 00:23:57;;;;;;;35.50;12.52;;;;;;;-3.45;100.00;102494.63;6239948;23;20004;-71
2023/03/01 00:26:25;;;;;;;26.80;12.00;;;;;;;-3.39;100.00;102494.53;6239402;23;20020;-70
2023/03/01 00:28:52;;;;;;;26.45;12.05;;;;;;;-3.38;100.00;102491.00;6231842;23;20004;-71
2023/03/01 00:31:21;;;;;;;23.27;11.63;;;;;;;-3.35;100.00;102490.09;6239715;23;20012;-71
2023/03/01 00:33:48;;;;;;;26.55;12.18;;;;;;;-3.40;100.00;102495.44;6239482;23;20015;-71
2023/03/01 00:36:15;;;;;;;26.58;11.60;;;;;;;-3.39;100.00;102489.28;6239844;23;20016;-70
2023/03/01 00:38:44;;;;;;;26.30;11.27;;;;;;;-3.44;100.00;102491.13;6239569;23;20020;-71
2023/03/01 00:41:14;;;;;;;27.15;10.60;;;;;;;-3.48;100.00;102483.31;6239554;23;20008;-70
2023/03/01 00:43:41;;;;;;;27.40;11.05;;;;;;;-3.49;100.00;102486.84;6238494;23;20016;-70
2023/03/01 00:46:11;;;;;;;28.13;10.95;;;;;;;-3.63;100.00;102485.31;6239829;23;20008;-70
2023/03/01 00:48:38;;;;;;;28.42;11.77;;;;;;;-3.59;100.00;102480.88;6236415;23;20019;-71
2023/03/01 00:51:12;;;;;;;25.95;11.05;;;;;;;-3.63;100.00;102479.22;6239173;23;20120;-71
2023/03/01 00:53:40;;;;;;;24.85;10.80;;;;;;;-3.73;100.00;102481.13;6241004;23;20012;-71
2023/03/01 00:56:08;;;;;;;26.05;11.40;;;;;;;-3.83;100.00;102482.16;6238367;23;20061;-69
2023/03/01 00:58:35;;;;;;;24.67;10.98;;;;;;;-3.80;100.00;102476.88;6238598;23;20031;-69
2023/03/01 01:01:16;;;;;;;20.77;10.18;;;;;;;-3.87;100.00;102481.34;6237970;23;20013;-70
2023/03/01 01:04:14;;;;;;;23.67;10.07;;;;;;;-3.88;100.00;102479.63;6239496;23;20051;-70
2023/03/01 01:06:46;;;;;;;25.70;10.32;;;;;;;-3.86;100.00;102482.19;6238596;23;20016;-71
2023/03/01 01:09:19;;;;;;;28.05;10.75;;;;;;;-3.85;100.00;102474.31;6240545;23;20008;-71
2023/03/01 01:11:50;;;;;;;26.10;10.50;;;;;;;-3.87;100.00;102467.38;6239633;23;20011;-71
2023/03/01 01:14:17;;;;;;;24.63;10.68;;;;;;;-3.89;100.00;102472.66;6232659;23;20047;-69
2023/03/01 01:16:44;;;;;;;26.58;11.25;;;;;;;-3.89;100.00;102470.03;6238684;23;20024;-69
2023/03/01 01:19:11;;;;;;;27.48;11.52;;;;;;;-3.83;100.00;102464.69;6240310;23;20001;-70
2023/03/01 01:21:38;;;;;;;24.88;11.52;;;;;;;-3.79;100.00;102463.75;6239317;23;20008;-71
2023/03/01 01:24:05;;;;;;;21.33;10.15;;;;;;;-3.79;100.00;102458.50;6239149;23;20032;-70
2023/03/01 01:26:33;;;;;;;31.58;12.80;;;;;;;-3.89;100.00;102456.91;6238980;23;20016;-69
2023/03/01 01:29:01;;;;;;;30.77;12.27;;;;;;;-3.94;100.00;102452.63;6239270;23;20004;-71
2023/03/01 01:31:28;;;;;;;32.40;11.80;;;;;;;-3.97;100.00;102445.66;6239465;23;20004;-69
2023/03/01 01:33:55;;;;;;;24.42;11.23;;;;;;;-3.95;100.00;102441.28;6239121;23;20012;-71
2023/03/01 01:36:22;;;;;;;26.95;11.80;;;;;;;-3.89;100.00;102437.69;6239008;23;20001;-71
2023/03/01 01:38:49;;;;;;;27.15;12.18;;;;;;;-3.89;100.00;102430.69;6238988;23;20000;-70
2023/03/01 01:41:16;;;;;;;23.70;11.18;;;;;;;-3.96;100.00;102431.69;6238891;23;20016;-71
2023/03/01 01:43:48;;;;;;;30.10;11.48;;;;;;;-3.88;100.00;102429.78;6213914;23;20047;-70
2023/03/01 01:46:28;;;;;;;24.52;11.07;;;;;;;-3.91;100.00;102431.59;6238894;23;20004;-70
2023/03/01 01:49:23;;;;;;;27.95;11.88;;;;;;;-3.98;100.00;102425.59;6238487;23;20024;-70
2023/03/01 01:52:16;;;;;;;27.35;11.13;;;;;;;-3.94;100.00;102432.50;6224456;23;20108;-70
2023/03/01 01:55:00;;;;;;;23.77;10.38;;;;;;;-3.94;100.00;102431.66;6238668;23;20000;-70
2023/03/01 01:57:33;;;;;;;23.00;10.60;;;;;;;-3.95;100.00;102440.41;6223565;23;20015;-70
2023/03/01 02:00:11;;;;;;;27.60;12.70;;;;;;;-3.98;100.00;102435.22;6238682;23;20028;-70
2023/03/01 02:02:40;;;;;;;22.20;11.57;;;;;;;-4.04;100.00;102431.78;6238747;23;20011;-69
2023/03/01 02:08:50;;;;;;;26.92;11.27;;;;;;;-4.04;100.00;102446.66;6206482;23;20012;-70
2023/03/01 02:11:19;;;;;;;26.67;12.20;;;;;;;-4.05;100.00;102452.78;6237322;23;20028;-69
2023/03/01 02:13:47;;;;;;;27.55;12.13;;;;;;;-4.10;100.00;102449.41;6238071;23;20039;-69
2023/03/01 02:16:15;;;;;;;30.00;11.77;;;;;;;-4.10;100.00;102445.00;6237305;23;20007;-69
2023/03/01 02:18:43;;;;;;;27.52;12.38;;;;;;;-4.16;100.00;102439.84;6230832;23;20082;-72
2023/03/01 02:21:24;;;;;;;29.67;11.85;;;;;;;-4.21;100.00;102438.19;6210536;23;20028;-73
2023/03/01 02:23:55;;;;;;;32.42;11.05;;;;;;;-4.28;100.00;102440.91;6208545;23;20021;-73
2023/03/01 02:26:39;;;;;;;17.87;8.63;;;;;;;-4.14;100.00;102439.81;6209955;23;20457;-73
2023/03/01 02:29:05;;;;;;;25.02;11.10;;;;;;;-4.11;100.00;102439.78;6207911;23;20349;-73
2023/03/01 02:31:41;;;;;;;22.70;10.63;;;;;;;-4.12;100.00;102443.28;6208869;23;20080;-73
2023/03/01 02:34:17;;;;;;;25.13;11.10;;;;;;;-4.15;100.00;102444.19;6203130;23;20092;-73
2023/03/01 02:36:48;;;;;;;28.60;11.95;;;;;;;-4.18;100.00;102448.63;6208286;23;20098;-71
2023/03/01 02:39:19;;;;;;;27.67;11.13;;;;;;;-4.25;100.00;102451.31;6210295;23;20020;-72
2023/03/01 02:41:49;;;;;;;23.50;11.77;;;;;;;-4.33;100.00;102450.59;6197596;23;20099;-73
2023/03/01 02:44:16;;;;;;;28.70;11.35;;;;;;;-4.36;100.00;102450.63;6205903;23;20031;-72
2023/03/01 02:46:51;;;;;;;29.55;11.75;;;;;;;-4.38;100.00;102441.94;6211054;23;20103;-72
2023/03/01 02:49:27;;;;;;;24.95;11.68;;;;;;;-4.32;100.00;102452.31;6223820;23;20031;-69
2023/03/01 02:52:16;;;;;;;23.10;10.55;;;;;;;-4.32;100.00;102449.69;6238353;23;20017;-70
2023/03/01 02:55:08;;;;;;;23.38;9.90;;;;;;;-4.25;100.00;102448.72;6239257;23;20005;-69
2023/03/01 02:57:36;;;;;;;26.67;11.50;;;;;;;-4.26;100.00;102447.00;6238662;23;20032;-69
2023/03/01 03:00:25;;;;;;;24.75;10.88;;;;;;;-4.29;100.00;102436.53;6239313;23;20012;-68
2023/03/01 03:02:54;;;;;;;25.23;10.70;;;;;;;-4.30;100.00;102433.97;6235545;23;20007;-70
2023/03/01 03:05:26;;;;;;;25.70;11.70;;;;;;;-4.31;100.00;102430.47;6212717;23;20056;-70
2023/03/01 03:07:53;;;;;;;23.90;10.88;;;;;;;-4.31;100.00;102421.75;6238579;23;19996;-69
2023/03/01 03:10:25;;;;;;;25.15;11.20;;;;;;;-4.37;100.00;102416.59;6238076;23;20024;-71
2023/03/01 03:12:57;;;;;;;25.70;11.73;;;;;;;-4.38;100.00;102428.84;6238849;23;20020;-69
2023/03/01 03:15:24;;;;;;;27.65;12.32;;;;;;;-4.37;100.00;102427.09;6231707;23;20044;-69
2023/03/01 03:17:53;;;;;;;29.60;11.50;;;;;;;-4.35;100.00;102426.16;6238313;23;20005;-70
2023/03/01 03:20:23;;;;;;;23.50;10.25;;;;;;;-4.35;100.00;102422.66;6238908;23;20023;-70
2023/03/01 03:22:52;;;;;;;22.25;10.50;;;;;;;-4.35;100.00;102425.28;6238988;23;20020;-71
2023/03/01 03:25:20;;;;;;;25.15;11.93;;;;;;;-4.43;100.00;102430.66;6240703;23;20035;-70
2023/03/01 03:30:28;;;;;;;22.33;10.98;;;;;;;-4.40;100.00;102420.13;6221106;22;20011;-70
2023/03/01 03:32:55;;;;;;;29.25;11.85;;;;;;;-4.40;100.00;102420.13;6239141;23;20052;-70
2023/03/01 03:35:29;;;;;;;32.63;11.35;;;;;;;-4.39;100.00;102413.13;6238771;23;20027;-71
2023/03/01 03:38:06;;;;;;;23.85;10.60;;;;;;;-4.47;100.00;102404.53;6234105;23;20020;-71
2023/03/01 03:40:39;;;;;;;27.40;11.15;;;;;;;-4.49;100.00;102405.38;6217362;23;20036;-72
2023/03/01 03:43:22;;;;;;;23.05;10.80;;;;;;;-4.47;100.00;102409.75;6210987;23;20028;-71
2023/03/01 03:45:50;;;;;;;25.33;11.07;;;;;;;-4.52;100.00;102413.31;6209673;23;20560;-72
2023/03/01 03:48:16;;;;;;;25.15;11.23;;;;;;;-4.56;100.00;102402.88;6197310;23;20024;-72
2023/03/01 03:50:49;;;;;;;30.20;11.23;;;;;;;-4.55;100.00;102402.03;6207264;23;20039;-72
2023/03/01 03:53:16;;;;;;;26.77;11.25;;;;;;;-4.57;100.00;102393.31;6210178;23;20020;-72
2023/03/01 03:55:44;;;;;;;24.58;12.32;;;;;;;-4.59;100.00;102395.06;6207715;23;20095;-72
2023/03/01 03:58:10;;;;;;;27.00;12.18;;;;;;;-4.64;100.00;102395.16;6209570;23;20108;-72
2023/03/01 04:00:40;;;;;;;25.77;11.73;;;;;;;-4.65;100.00;102396.03;6209292;23;20350;-71
2023/03/01 04:03:07;;;;;;;25.75;11.52;;;;;;;-4.66;100.00;102382.94;6209865;23;20466;-72
2023/03/01 04:05:35;;;;;;;25.20;11.60;;;;;;;-4.66;100.00;102381.19;6209220;23;20107;-71
2023/03/01 04:08:02;;;;;;;26.90;11.80;;;;;;;-4.68;100.00;102385.59;6210146;23;20020;-71
2023/03/01 04:10:31;;;;;;;27.98;12.13;;;;;;;-4.70;100.00;102381.28;6195379;23;20334;-72
2023/03/01 04:29:13;;;;;;;27.67;12.32;;;;;;;-4.76;100.00;102393.56;6138867;22;20338;31
2023/03/01 04:31:40;;;;;;;27.35;11.52;;;;;;;-4.84;100.00;102395.41;6148769;23;20021;-73
2023/03/01 04:34:06;;;;;;;27.75;12.02;;;;;;;-4.86;100.00;102389.34;6149776;23;20061;-72
2023/03/01 04:36:35;;;;;;;24.95;11.80;;;;;;;-4.76;100.00;102375.25;6149003;23;20031;-73
2023/03/01 04:39:11;;;;;;;25.17;12.13;;;;;;;-4.76;100.00;102382.25;6149137;23;20021;-72
2023/03/01 04:41:39;;;;;;;24.23;11.80;;;;;;;-4.78;100.00;102384.88;6145979;23;20045;-72
2023/03/01 04:44:06;;;;;;;34.20;12.30;;;;;;;-4.81;100.00;102389.28;6148298;23;20029;-72
2023/03/01 04:46:33;;;;;;;30.33;11.88;;;;;;;-4.82;100.00;102379.69;6150248;23;20021;-72
2023/03/01 04:48:59;;;;;;;25.40;13.00;;;;;;;-4.82;100.00;102383.19;6151204;23;20028;-72
2023/03/01 04:51:26;;;;;;;25.13;11.85;;;;;;;-4.84;100.00;102384.94;6151334;23;20026;-71
2023/03/01 04:53:52;;;;;;;30.10;12.32;;;;;;;-4.91;100.00;102375.44;6150689;23;20052;-71
2023/03/01 04:56:19;;;;;;;26.95;12.40;;;;;;;-4.93;100.00;102385.06;6150360;23;20029;-71
2023/03/01 04:58:46;;;;;;;37.55;13.25;;;;;;;-4.89;100.00;102385.91;6149701;23;20358;-72
2023/03/01 05:01:18;;;;;;;25.40;12.10;;;;;;;-4.90;100.00;102379.81;6150828;23;20478;-72
2023/03/01 05:03:50;;;;;;;32.45;13.25;;;;;;;-4.92;100.00;102386.81;6149321;23;20388;-72
2023/03/01 05:06:18;;;;;;;25.02;12.23;;;;;;;-4.93;100.00;102377.22;6149591;23;20030;-71
2023/03/01 05:08:44;;;;;;;28.92;12.93;;;;;;;-4.96;100.00;102385.13;6150063;23;20408;-72
2023/03/01 05:11:11;;;;;;;29.75;13.18;;;;;;;-5.01;100.00;102386.91;6149821;23;20033;-72
2023/03/01 05:13:39;;;;;;;32.67;13.68;;;;;;;-5.18;100.00;102381.00;6150114;23;20359;-72
2023/03/01 05:16:10;;;;;;;27.83;13.60;;;;;;;-5.11;100.00;102370.47;6150748;23;20459;-71
2023/03/01 05:18:38;;;;;;;25.05;12.10;;;;;;;-4.98;100.00;102373.78;6150733;23;20017;-72
2023/03/01 05:21:11;;;;;;;30.45;13.05;;;;;;;-5.01;100.00;102374.69;6151598;23;20026;-71
2023/03/01 05:23:38;;;;;;;30.05;13.50;;;;;;;-5.03;100.00;102373.84;6150390;23;20018;-72
2023/03/01 05:26:06;;;;;;;34.60;12.50;;;;;;;-5.06;100.00;102384.34;6152104;23;20032;-71
2023/03/01 05:28:37;;;;;;;31.70;12.68;;;;;;;-5.00;100.00;102383.44;6178579;23;20024;-71
2023/03/01 05:31:09;;;;;;;32.55;12.30;;;;;;;-5.06;100.00;102378.25;6157009;23;20028;-71
2023/03/01 05:33:40;;;;;;;34.55;14.15;;;;;;;-5.05;100.00;102372.13;6150628;23;20021;-72
2023/03/01 05:36:09;;;;;;;32.70;14.00;;;;;;;-5.10;100.00;102372.19;6150490;23;20025;-71
2023/03/01 05:38:36;;;;;;;28.95;12.43;;;;;;;-5.11;100.00;102370.47;6149487;23;20342;-71
2023/03/01 05:41:03;;;;;;;28.17;12.85;;;;;;;-5.09;100.00;102373.06;6151337;23;20013;-72
2023/03/01 05:43:35;;;;;;;30.85;12.48;;;;;;;-5.10;100.00;102376.56;6151006;23;20080;-72
2023/03/01 05:46:02;;;;;;;41.25;12.20;;;;;;;-5.16;100.00;102372.28;6150210;23;20021;-72
2023/03/01 05:48:28;;;;;;;34.88;12.70;;;;;;;-5.15;100.00;102362.66;6149245;23;20026;-72
2023/03/01 05:50:59;;;;;;;33.03;13.02;;;;;;;-5.16;100.00;102360.94;6149542;23;20025;-71
2023/03/01 05:53:26;;;;;;;32.17;13.18;;;;;;;-5.13;100.00;102366.16;6149227;23;20308;-72
2023/03/01 05:55:53;;;;;;;44.58;16.38;;;;;;;-5.17;100.00;102367.06;6149567;23;20100;-71
2023/03/01 05:58:19;;;;;;;39.83;17.17;;;;;;;-5.16;100.00;102369.66;6149432;23;20025;-72
2023/03/01 06:00:48;;;;;;;39.83;16.40;;;;;;;-5.16;100.00;102372.28;6150289;23;20097;-72
2023/03/01 06:03:16;;;;;;;27.10;13.63;;;;;;;-5.17;100.00;102369.69;6148961;23;20049;-72
2023/03/01 06:05:43;;;;;;;32.35;13.48;;;;;;;-5.17;100.00;102374.91;6149368;23;20362;-72
2023/03/01 06:08:11;;;;;;;26.48;12.85;;;;;;;-5.16;100.00;102376.66;6124038;23;20056;-71
2023/03/01 06:10:38;;;;;;;32.13;13.52;;;;;;;-5.11;100.00;102375.72;6151148;23;20434;-72
2023/03/01 06:13:04;;;;;;;36.25;13.80;;;;;;;-5.11;100.00;102374.81;6141009;23;20026;-72
2023/03/01 06:15:31;;;;;;;31.05;13.73;;;;;;;-5.12;100.00;102367.88;6149168;23;20047;-72
2023/03/01 06:17:57;;;;;;;29.52;13.95;;;;;;;-5.11;100.00;102366.97;6148239;23;20178;-71
2023/03/01 06:20:28;;;;;;;31.38;13.73;;;;;;;-5.04;100.00;102371.25;6149580;23;20431;-71
2023/03/01 06:22:55;;;;;;;32.08;13.57;;;;;;;-5.07;100.00;102371.31;6149600;23;20096;-72
2023/03/01 06:25:23;;;;;;;30.75;14.32;;;;;;;-5.11;100.00;102369.59;6149141;23;20116;-71
2023/03/01 06:27:51;;;;;;;32.42;14.05;;;;;;;-5.14;100.00;102369.63;6149444;23;20108;-72
2023/03/01 06:30:20;;;;;;;42.17;13.90;;;;;;;-5.10;100.00;102366.97;6148437;23;20408;-71
2023/03/01 06:32:47;;;;;;;31.92;13.70;;;;;;;-4.89;100.00;102371.06;6150176;23;20053;-71
2023/03/01 06:35:19;;;;;;;34.90;14.18;;;;;;;-4.86;100.00;102376.25;6145564;23;20084;-72
2023/03/01 06:37:48;;;;;;;31.55;13.38;;;;;;;-4.82;100.00;102372.72;6150278;23;20332;-72
2023/03/01 06:40:14;;;;;;;43.38;12.90;;;;;;;-4.76;100.00;102372.63;6150993;23;20021;-71
2023/03/01 06:42:48;;;;;;;41.45;14.88;;;;;;;-4.74;100.00;102375.22;6135881;23;20026;-71
2023/03/01 06:45:17;;;;;;;64.78;20.48;;;;;;;-4.66;100.00;102375.09;6150878;23;20410;-70
2023/03/01 06:47:43;;;;;;;50.83;17.38;;;;;;;-4.68;100.00;102374.28;6148955;23;20026;-72
2023/03/01 06:50:11;;;;;;;40.05;16.35;;;;;;;-4.65;100.00;102377.72;6152361;23;20100;-72
2023/03/01 06:52:38;;;;;;;48.30;16.30;;;;;;;-4.65;100.00;102385.56;6176509;23;20009;-70
2023/03/01 06:55:05;;;;;;;44.03;16.30;;;;;;;-4.68;100.00;102379.50;6178282;23;20022;-70
2023/03/01 06:57:32;;;;;;;38.15;16.38;;;;;;;-4.56;100.00;102379.31;6178777;23;20013;-69
2023/03/01 06:59:59;;;;;;;40.67;15.07;;;;;;;-4.48;100.00;102369.59;6180253;23;20006;-68
2023/03/01 07:02:26;;;;;;;45.13;16.45;;;;;;;-4.48;100.00;102382.72;6179913;23;20029;-69
2023/03/01 07:04:52;;;;;;;54.58;18.40;;;;;;;-4.49;100.00;102370.47;6180282;23;20017;-70
2023/03/01 07:07:19;;;;;;;34.40;17.08;;;;;;;-4.41;100.00;102381.72;6180596;23;20016;-69
2023/03/01 07:09:46;;;;;;;78.32;27.30;;;;;;;-4.34;100.00;102382.50;6179957;23;20016;-71
2023/03/01 07:12:12;;;;;;;44.35;19.00;;;;;;;-4.18;100.00;102380.47;6179827;23;20017;-71
2023/03/01 07:14:39;;;;;;;47.33;20.40;;;;;;;-4.18;100.00;102385.72;6180261;23;20002;-70
2023/03/01 07:17:06;;;;;;;36.80;16.95;;;;;;;-4.11;100.00;102387.34;6180258;23;20044;-70
2023/03/01 07:19:32;;;;;;;38.45;16.92;;;;;;;-4.02;100.00;102395.09;6179978;23;20021;-71
2023/03/01 07:21:59;;;;;;;35.20;15.82;;;;;;;-3.94;100.00;102398.44;6179430;23;20025;-71
2023/03/01 07:24:26;;;;;;;36.45;15.88;;;;;;;-3.85;100.00;102393.03;6178984;23;20005;-71
2023/03/01 07:26:53;;;;;;;33.88;16.55;;;;;;;-3.72;100.00;102387.56;6179738;23;20033;-71
2023/03/01 07:29:20;;;;;;;39.78;17.73;;;;;;;-3.53;100.00;102389.81;6180547;23;20010;-71
2023/03/01 07:31:46;;;;;;;49.22;18.35;;;;;;;-3.30;100.00;102405.16;6179663;23;20010;-71
2023/03/01 07:34:13;;;;;;;44.17;18.38;;;;;;;-3.03;100.00;102396.72;6180091;23;20010;-71
2023/03/01 07:36:42;;;;;;;39.33;17.45;;;;;;;-2.67;100.00;102388.09;6181135;23;20005;-71
2023/03/01 07:39:10;;;;;;;39.13;17.40;;;;;;;-2.36;100.00;102392.66;6180885;23;20068;-70
2023/03/01 07:41:37;;;;;;;40.67;16.30;;;;;;;-1.78;100.00;102393.84;6178041;23;20013;-70
2023/03/01 07:44:04;;;;;;;40.03;17.42;;;;;;;-1.49;100.00;102385.16;6179852;23;20013;-71
2023/03/01 07:46:30;;;;;;;36.97;15.45;;;;;;;-1.34;100.00;102380.38;6180133;23;20009;-71
2023/03/01 07:48:58;;;;;;;32.30;15.23;;;;;;;-1.29;100.00;102389.91;6180120;23;19998;-71
2023/03/01 07:51:24;;;;;;;36.47;15.23;;;;;;;-1.34;100.00;102390.91;6155379;23;20013;-71
2023/03/01 07:53:51;;;;;;;28.63;14.68;;;;;;;-1.18;100.00;102379.91;6180148;23;20005;-71
2023/03/01 07:56:18;;;;;;;33.58;15.18;;;;;;;-1.03;100.00;102386.50;6180232;23;20025;-71
2023/03/01 07:58:45;;;;;;;37.15;14.10;;;;;;;-0.67;100.00;102386.34;6179708;23;20006;-71
2023/03/01 08:01:17;;;;;;;32.45;14.32;;;;;;;-0.01;100.00;102382.47;6180094;23;20058;-71
2023/03/01 08:03:44;;;;;;;36.88;15.15;;;;;;;0.55;97.66;102385.84;6154323;23;20035;-71
2023/03/01 08:06:13;;;;;;;30.67;14.18;;;;;;;0.88;88.41;102389.88;6180873;23;20032;-71
2023/03/01 08:08:40;;;;;;;26.65;13.40;;;;;;;1.44;82.66;102393.94;6180182;23;20002;-71
2023/03/01 08:11:08;;;;;;;43.22;13.38;;;;;;;2.03;75.88;102389.84;6179452;23;20010;-71
2023/03/01 08:13:34;;;;;;;29.10;12.05;;;;;;;2.14;71.09;102391.09;6170606;23;20029;-72
2023/03/01 08:16:13;;;;;;;25.15;12.27;;;;;;;2.13;70.36;102391.16;6177800;23;20006;-71
2023/03/01 08:18:39;;;;;;;26.08;12.15;;;;;;;2.37;68.82;102386.59;6179277;23;20060;-71
2023/03/01 08:21:16;;;;;;;25.08;12.75;;;;;;;2.56;67.36;102384.03;6179465;23;20016;-72
2023/03/01 08:23:43;;;;;;;32.72;12.73;;;;;;;2.42;64.02;102377.53;6177745;23;20049;-72
2023/03/01 08:26:12;;;;;;;20.33;9.65;;;;;;;3.29;61.28;102372.72;6180024;23;20016;-70
2023/03/01 08:28:39;;;;;;;25.25;10.55;;;;;;;3.40;58.21;102380.16;6178876;23;20029;-71
2023/03/01 08:31:20;;;;;;;30.58;11.27;;;;;;;3.49;58.81;102366.47;6179704;23;20010;-71
2023/03/01 08:33:51;;;;;;;23.27;10.25;;;;;;;3.45;57.51;102364.00;6179054;23;20030;-72
2023/03/01 08:36:18;;;;;;;25.88;9.82;;;;;;;3.34;57.28;102370.72;6174403;23;20008;-72
2023/03/01 08:38:45;;;;;;;41.88;10.48;;;;;;;3.58;56.12;102367.78;6179584;23;20009;-72
2023/03/01 08:41:12;;;;;;;19.90;8.73;;;;;;;3.71;53.95;102363.63;6179846;23;20101;-71
2023/03/01 08:43:39;;;;;;;21.83;8.15;;;;;;;3.89;53.37;102360.97;6179047;23;20016;-71
2023/03/01 08:46:05;;;;;;;14.70;7.82;;;;;;;3.96;52.61;102365.03;6178611;23;20037;-72
2023/03/01 08:48:32;;;;;;;17.98;8.60;;;;;;;4.16;51.67;102359.59;6175798;23;20021;-72
2023/03/01 08:51:29;;;;;;;44.15;10.15;;;;;;;3.82;52.34;102361.28;6178979;23;20032;-72
2023/03/01 08:53:55;;;;;;;21.42;7.38;;;;;;;4.18;51.25;102357.72;6149823;23;20029;-72
2023/03/01 08:56:22;;;;;;;20.27;8.07;;;;;;;4.41;50.21;102358.34;6179373;23;20025;-72
2023/03/01 08:58:49;;;;;;;16.45;7.47;;;;;;;4.83;49.06;102357.88;6173010;23;20005;-71
2023/03/01 09:01:17;;;;;;;23.83;8.32;;;;;;;5.17;48.84;102354.22;6151636;23;20291;-75
2023/03/01 09:03:44;;;;;;;19.67;7.47;;;;;;;5.79;46.85;102358.75;6151524;23;20128;-76
2023/03/01 09:06:11;;;;;;;16.48;6.32;;;;;;;5.89;46.30;102354.59;6152057;23;20026;-76
2023/03/01 09:08:40;;;;;;;12.70;6.25;;;;;;;6.07;44.50;102350.84;6150363;23;20100;-75
2023/03/01 09:11:09;;;;;;;16.92;6.05;;;;;;;5.97;44.13;102345.19;6149831;23;20096;-76
2023/03/01 09:13:36;;;;;;;10.80;5.90;;;;;;;6.24;43.70;102345.38;6150813;23;21518;-76
2023/03/01 09:16:05;;;;;;;13.73;6.15;;;;;;;6.01;44.23;102340.56;6149988;23;20036;-76
2023/03/01 09:18:32;;;;;;;17.60;5.78;;;;;;;6.08;42.83;102335.72;6149913;23;20052;-76
2023/03/01 09:21:14;;;;;;;15.38;6.60;;;;;;;6.14;43.42;102344.19;6150082;23;20022;-76
2023/03/01 09:23:43;;;;;;;32.55;8.18;;;;;;;6.43;41.71;102334.50;6150864;23;20028;-76
2023/03/01 09:26:12;;;;;;;27.60;6.68;;;;;;;6.06;42.65;102335.81;6150130;23;20350;-76
2023/03/01 09:28:40;;;;;;;14.32;5.63;;;;;;;6.56;41.75;102326.56;6150083;23;20022;-75
2023/03/01 09:31:08;;;;;;;13.55;5.28;;;;;;;6.87;40.60;102327.34;6150021;23;20324;-76
2023/03/01 09:33:34;;;;;;;11.80;4.88;;;;;;;6.93;40.74;102330.47;6150812;23;20027;-76
2023/03/01 09:36:06;;;;;;;11.50;5.68;;;;;;;6.70;40.07;102334.59;6150037;23;20071;-76
2023/03/01 09:38:34;;;;;;;11.55;6.38;;;;;;;5.72;41.83;102332.47;6150064;23;20112;-76
2023/03/01 09:41:02;;;;;;;14.13;5.32;;;;;;;6.60;39.66;102328.13;6150581;23;20407;-74
2023/03/01 09:43:43;;;;;;;8.73;5.05;;;;;;;7.12;39.14;102318.66;6150159;23;20021;-76
2023/03/01 09:46:16;;;;;;;20.98;5.60;;;;;;;7.19;39.13;102319.97;6151465;23;20028;-76
2023/03/01 09:48:51;;;;;;;17.00;5.38;;;;;;;7.49;38.91;102324.25;6150641;23;20100;-76
2023/03/01 09:51:24;;;;;;;15.70;5.78;;;;;;;7.66;38.41;102318.63;6150292;23;20048;-75
2023/03/01 09:53:54;;;;;;;11.75;5.10;;;;;;;8.37;37.64;102325.44;6150201;23;20104;-75
2023/03/01 09:56:35;;;;;;;15.43;4.97;;;;;;;8.50;37.27;102320.91;6150262;23;20093;-75
2023/03/01 09:59:13;;;;;;;13.77;4.60;;;;;;;8.20;36.98;102312.38;6150529;23;20037;-76
2023/03/01 10:01:56;;;;;;;12.35;5.25;;;;;;;7.65;37.60;102317.78;6151181;23;20108;-76
2023/03/01 10:04:46;;;;;;;18.50;6.30;;;;;;;8.14;37.14;102319.84;6148645;23;20446;-76
2023/03/01 10:07:21;;;;;;;24.45;5.00;;;;;;;8.49;36.40;102324.56;6151099;23;20043;-76
2023/03/01 10:09:48;;;;;;;14.00;4.88;;;;;;;8.18;36.23;102327.66;6151260;23;20104;-75
2023/03/01 10:12:23;;;;;;;20.92;5.38;;;;;;;8.75;35.49;102328.09;6151675;23;20032;-76
2023/03/01 10:15:04;;;;;;;15.75;5.10;;;;;;;9.19;33.83;102326.69;6151399;23;20022;-75
2023/03/01 10:17:39;;;;;;;8.10;4.38;;;;;;;8.87;34.55;102323.69;6152278;23;20060;-76
2023/03/01 10:20:51;;;;;;;13.20;5.63;;;;;;;8.01;36.35;102329.66;6151360;23;20470;-76
2023/03/01 10:23:18;;;;;;;;;;;;;;;7.96;36.00;102328.28;6004244;23;20476;-75
2023/03/01 10:26:00;;;;;;;11.48;4.68;;;;;;;8.28;36.44;102326.06;6003424;23;19918;-76
2023/03/01 10:28:45;;;;;;;14.40;4.93;;;;;;;7.74;37.18;102315.44;6003042;23;20027;-76
2023/03/01 10:31:14;;;;;;;15.02;5.15;;;;;;;8.16;36.23;102313.53;6026932;23;20031;-76
2023/03/01 10:33:41;;;;;;;18.13;5.65;;;;;;;7.96;36.39;102315.75;6033404;23;20034;-75
2023/03/01 10:36:08;;;;;;;12.15;4.95;;;;;;;8.00;36.52;102311.91;6033738;23;20038;-76
2023/03/01 10:38:52;;;;;;;8.07;4.57;;;;;;;8.43;35.18;102308.09;6034402;23;20067;-76
2023/03/01 10:41:18;;;;;;;10.90;5.38;;;;;;;8.04;36.26;102302.72;6033770;23;20019;-75
2023/03/01 10:43:48;;;;;;;12.18;4.90;;;;;;;7.58;36.77;102305.81;6035629;23;20034;-76
2023/03/01 10:46:32;;;;;;;16.15;4.80;;;;;;;7.62;36.60;102306.44;6021368;23;20023;-77
2023/03/01 10:49:22;;;;;;;12.85;5.30;;;;;;;8.11;35.61;102306.69;6034446;23;20027;-76
2023/03/01 10:51:52;;;;;;;24.88;5.18;;;;;;;7.59;36.77;102294.16;6034228;23;20043;-75
2023/03/01 10:54:32;;;;;;;11.13;4.82;;;;;;;8.20;35.63;102291.84;6125356;23;20041;-75
2023/03/01 10:57:03;;;;;;;12.93;4.97;;;;;;;7.53;36.78;102293.69;6181503;23;20092;-76
2023/03/01 10:59:33;;;;;;;14.57;5.10;;;;;;;7.69;36.62;102290.88;6182093;23;20092;-76
2023/03/01 11:02:09;;;;;;;13.20;4.97;;;;;;;7.84;35.81;102292.53;6180765;23;20028;-76
2023/03/01 11:05:08;;;;;;;16.67;7.15;;;;;;;7.94;35.02;102285.59;6178201;23;20320;-76
2023/03/01 11:07:56;;;;;;;15.50;5.80;;;;;;;7.85;33.91;102279.09;6182129;23;20037;-76
2023/03/01 11:10:31;;;;;;;13.82;5.25;;;;;;;7.04;35.43;102278.22;6180948;23;20044;-75
2023/03/01 11:13:19;;;;;;;13.60;5.05;;;;;;;7.52;35.58;102276.81;6181732;23;20025;-75
2023/03/01 11:16:00;;;;;;;14.23;5.38;;;;;;;7.38;35.90;102266.22;6182305;23;20327;-75
2023/03/01 11:18:30;;;;;;;19.98;5.65;;;;;;;8.06;34.32;102263.41;6181617;23;20079;-75
2023/03/01 11:21:14;;;;;;;16.33;5.93;;;;;;;7.94;34.69;102264.22;6181255;23;20017;-76
2023/03/01 11:23:45;;;;;;;21.80;6.38;;;;;;;7.90;33.86;102262.72;6181597;23;20025;-76
2023/03/01 11:26:13;;;;;;;17.35;6.45;;;;;;;7.68;35.00;102257.97;6181511;23;20021;-76
2023/03/01 11:28:44;;;;;;;16.42;6.25;;;;;;;7.70;35.51;102261.38;6181698;23;20035;-77
2023/03/01 11:31:12;;;;;;;14.82;6.75;;;;;;;7.69;35.60;102251.66;6158003;23;20041;-75
2023/03/01 11:34:02;;;;;;;16.33;6.35;;;;;;;7.70;35.09;102248.03;6151482;23;20053;-77
2023/03/01 11:36:42;;;;;;;17.05;5.93;;;;;;;8.43;33.73;102249.25;6150958;23;20484;-75
2023/03/01 11:39:27;;;;;;;16.02;6.13;;;;;;;7.92;33.69;102247.47;6151068;23;20095;-76
2023/03/01 11:42:15;;;;;;;18.92;6.32;;;;;;;8.74;33.43;102245.22;6144187;23;20467;-75
2023/03/01 11:44:48;;;;;;;12.25;5.85;;;;;;;9.33;32.63;102245.38;6149829;23;20092;-76
2023/03/01 11:47:59;;;;;;;14.60;5.97;;;;;;;9.36;32.26;102236.25;6152950;23;20021;-76
2023/03/01 11:50:50;;;;;;;11.90;6.18;;;;;;;9.69;31.62;102247.09;6149621;23;20052;-75
2023/03/01 11:53:50;;;;;;;17.43;5.77;;;;;;;10.30;30.40;102236.09;6147232;23;20021;-76
2023/03/01 11:56:32;;;;;;;19.73;5.07;;;;;;;9.83;30.69;102243.38;6143569;23;20018;-76